createdAt,value
2023-06-07T04:04:13.496Z,100511.37
2023-06-07T04:07:17.370Z,100511.37
2023-06-07T04:10:20.512Z,100516.88
2023-06-07T04:13:22.937Z,100514.16
2023-06-07T04:16:25.280Z,100523.28
2023-06-07T04:19:28.411Z,100523.62
2023-06-07T04:22:31.612Z,100523.91
2023-06-07T04:25:34.972Z,100520.53
2023-06-07T04:28:41.803Z,100524.94
2023-06-07T04:31:45.735Z,100536.25
2023-06-07T04:34:48.826Z,100525.09
2023-06-07T04:37:52.165Z,100525.75
2023-06-07T04:40:54.942Z,100527.19
2023-06-07T04:43:58.392Z,100523.47
2023-06-07T04:47:08.037Z,100525.22
2023-06-07T04:50:11.995Z,100524.81
2023-06-07T04:53:19.048Z,100527.72
2023-06-07T04:56:22.747Z,100530.38
2023-06-07T04:59:25.921Z,100530.66
2023-06-07T05:02:28.501Z,100532.75
2023-06-07T05:05:31.081Z,100537.81
2023-06-07T05:08:33.797Z,100531.44
2023-06-07T05:11:36.306Z,100541.16
2023-06-07T05:14:39.474Z,100534.50
2023-06-07T05:17:41.913Z,100531.06
2023-06-07T05:20:47.081Z,100530.62
2023-06-07T05:23:49.479Z,100533.13
2023-06-07T05:26:52.530Z,100533.72
2023-06-07T05:29:54.773Z,100531.81
2023-06-07T05:32:58.382Z,100532.72
2023-06-07T05:36:01.768Z,100531.47
2023-06-07T05:39:05.006Z,100529.72
2023-06-07T05:42:07.929Z,100533.91
2023-06-07T05:45:10.655Z,100536.91
2023-06-07T05:48:13.058Z,100540.22
2023-06-07T05:51:15.611Z,100542.63
2023-06-07T05:54:18.853Z,100540.84
2023-06-07T05:57:22.248Z,100540.34
2023-06-07T06:00:25.153Z,100545.59
2023-06-07T06:03:27.957Z,100544.81
2023-06-07T06:06:30.206Z,100548.91
2023-06-07T06:09:32.693Z,100546.31
2023-06-07T06:12:35.093Z,100549.69
2023-06-07T06:15:37.639Z,100547.22
2023-06-07T06:18:41.517Z,100546.66
2023-06-07T06:21:44.500Z,100548.53
2023-06-07T06:24:46.800Z,100558.28
2023-06-07T06:27:49.269Z,100556.50
2023-06-07T06:30:51.500Z,100550.28
2023-06-07T06:33:54.431Z,100549.50
2023-06-07T06:36:58.282Z,100554.25
2023-06-07T06:40:00.896Z,100556.16
2023-06-07T06:43:03.048Z,100558.03
2023-06-07T06:46:06.737Z,100558.28
2023-06-07T06:49:12.612Z,100558.87
2023-06-07T06:52:16.698Z,100556.97
2023-06-07T06:55:19.021Z,100561.50
2023-06-07T06:58:21.594Z,100558.00
2023-06-07T07:01:24.043Z,100556.91
2023-06-07T07:04:26.869Z,100558.72
2023-06-07T07:07:29.150Z,100556.94
2023-06-07T07:10:33.455Z,100555.22
2023-06-07T07:13:35.971Z,100561.12
2023-06-07T07:16:41.651Z,100556.13
2023-06-07T07:19:44.061Z,100569.53
2023-06-07T07:22:47.209Z,100571.03
2023-06-07T07:25:49.472Z,100564.78
2023-06-07T07:28:53.883Z,100578.22
2023-06-07T07:31:56.656Z,100565.38
2023-06-07T07:34:59.868Z,100577.53
2023-06-07T07:38:03.483Z,100569.00
2023-06-07T07:41:06.690Z,100577.28
2023-06-07T07:44:08.911Z,100578.91
2023-06-07T07:47:13.036Z,100579.16
2023-06-07T07:50:16.786Z,100574.97
2023-06-07T07:53:19.409Z,100576.69
2023-06-07T07:56:24.527Z,100574.19
2023-06-07T07:59:28.165Z,100584.06
2023-06-07T08:02:31.016Z,100586.22
2023-06-07T08:05:33.644Z,100593.72
2023-06-07T08:08:35.885Z,100586.72
2023-06-07T08:11:38.908Z,100587.16
2023-06-07T08:14:41.232Z,100590.69
2023-06-07T08:17:43.750Z,100590.22
2023-06-07T08:20:46.021Z,100586.03
2023-06-07T08:23:48.753Z,100589.56
2023-06-07T08:26:51.107Z,100585.59
2023-06-07T08:29:53.901Z,100590.34
2023-06-07T08:32:56.486Z,100583.56
2023-06-07T08:35:58.996Z,100586.97
2023-06-07T08:39:02.564Z,100584.59
2023-06-07T08:42:06.147Z,100581.19
2023-06-07T08:45:08.582Z,100579.63
2023-06-07T08:48:13.477Z,100582.34
2023-06-07T08:51:17.893Z,100582.66
2023-06-07T08:54:27.348Z,100578.56
2023-06-07T08:57:32.019Z,100565.75
2023-06-07T09:00:36.252Z,100564.16
2023-06-07T09:03:38.452Z,100563.38
2023-06-07T09:06:41.474Z,100562.69
2023-06-07T09:09:46.968Z,100563.47
2023-06-07T09:12:49.651Z,100560.19
2023-06-07T09:15:53.731Z,100563.22
2023-06-07T09:18:56.518Z,100568.66
2023-06-07T09:21:58.698Z,100563.66
2023-06-07T09:25:08.419Z,100567.34
2023-06-07T09:28:12.435Z,100565.72
2023-06-07T09:31:33.337Z,100565.16
2023-06-07T09:34:35.771Z,100573.31
2023-06-07T09:37:46.917Z,100572.53
2023-06-07T09:40:52.474Z,100573.28
2023-06-07T09:43:55.528Z,100584.66
2023-06-07T09:47:03.088Z,100581.84
2023-06-07T09:50:08.448Z,100572.84
2023-06-07T09:53:10.605Z,100581.25
2023-06-07T09:56:17.725Z,100576.25
2023-06-07T09:59:20.031Z,100573.41
2023-06-07T10:02:27.788Z,100571.84
2023-06-07T10:05:30.233Z,100571.38
2023-06-07T10:08:32.753Z,100571.63
2023-06-07T10:11:37.549Z,100565.59
2023-06-07T10:14:41.829Z,100556.28
2023-06-07T10:17:56.825Z,100563.75
2023-06-07T10:21:03.716Z,100563.84
2023-06-07T10:24:10.930Z,100551.91
2023-06-07T10:27:18.240Z,100554.38
2023-06-07T10:30:25.479Z,100554.53
2023-06-07T10:33:28.260Z,100555.09
2023-06-07T10:36:31.020Z,100556.31
2023-06-07T10:39:33.223Z,100556.09
2023-06-07T10:42:36.416Z,100555.37
2023-06-07T10:45:38.681Z,100556.09
2023-06-07T10:48:44.813Z,100555.22
2023-06-07T10:51:54.803Z,100542.63
2023-06-07T10:54:57.668Z,100546.78
2023-06-07T10:58:01.352Z,100548.63
2023-06-07T11:01:24.990Z,100544.75
2023-06-07T11:04:39.605Z,100549.84
2023-06-07T11:07:48.880Z,100545.03
2023-06-07T11:10:51.572Z,100548.13
2023-06-07T11:13:54.354Z,100540.34
2023-06-07T11:16:57.204Z,100542.84
2023-06-07T11:20:00.872Z,100543.72
2023-06-07T11:23:26.182Z,100551.56
2023-06-07T11:26:28.960Z,100547.22
2023-06-07T11:29:31.332Z,100546.28
2023-06-07T11:32:39.769Z,100546.88
2023-06-07T11:35:43.422Z,100545.81
2023-06-07T11:38:50.500Z,100550.81
2023-06-07T11:41:52.689Z,100555.41
2023-06-07T11:44:55.591Z,100545.13
2023-06-07T11:48:01.824Z,100546.00
2023-06-07T11:51:04.502Z,100538.87
2023-06-07T11:54:07.466Z,100535.69
2023-06-07T11:57:10.995Z,100536.22
2023-06-07T12:00:18.783Z,100531.22
2023-06-07T12:03:23.140Z,100541.50
2023-06-07T12:06:27.282Z,100523.34
2023-06-07T12:09:29.553Z,100522.47
2023-06-07T12:12:32.140Z,100522.38
2023-06-07T12:15:35.794Z,100515.63
2023-06-07T12:18:39.334Z,100505.56
2023-06-07T12:21:41.564Z,100498.63
2023-06-07T12:24:43.984Z,100497.81
2023-06-07T12:27:50.044Z,100491.56
2023-06-07T12:30:53.334Z,100488.06
2023-06-07T12:34:03.615Z,100471.37
2023-06-07T12:37:06.449Z,100474.75
2023-06-07T12:40:09.350Z,100469.88
2023-06-07T12:43:11.906Z,100468.00
2023-06-07T12:46:14.350Z,100462.97
2023-06-07T12:49:16.816Z,100465.50
2023-06-07T12:52:19.277Z,100469.72
2023-06-07T12:55:21.979Z,100468.38
2023-06-07T12:58:24.171Z,100462.38
2023-06-07T13:01:26.774Z,100466.03
2023-06-07T13:04:31.013Z,100460.87
2023-06-07T13:07:34.908Z,100466.09
2023-06-07T13:10:37.732Z,100473.25
2023-06-07T13:13:40.231Z,100466.19
2023-06-07T13:16:44.452Z,100465.69
2023-06-07T13:19:47.514Z,100456.84
2023-06-07T13:22:49.935Z,100450.81
2023-06-07T13:25:52.364Z,100453.50
2023-06-07T13:28:54.588Z,100455.00
2023-06-07T13:31:57.300Z,100441.31
2023-06-07T13:34:59.496Z,100446.56
2023-06-07T13:38:01.935Z,100443.91
2023-06-07T13:41:04.572Z,100436.91
2023-06-07T13:44:17.283Z,100439.84
2023-06-07T13:47:22.062Z,100436.72
2023-06-07T13:50:24.617Z,100426.06
2023-06-07T13:53:27.311Z,100430.69
2023-06-07T13:56:30.831Z,100429.50
2023-06-07T13:59:33.315Z,100431.88
2023-06-07T14:02:36.122Z,100435.69
2023-06-07T14:05:38.898Z,100430.97
2023-06-07T14:08:41.086Z,100424.63
2023-06-07T14:11:43.937Z,100424.56
2023-06-07T14:14:46.227Z,100426.16
2023-06-07T14:17:48.750Z,100421.47
2023-06-07T14:20:51.073Z,100417.16
2023-06-07T14:23:53.680Z,100414.34
2023-06-07T14:26:55.862Z,100404.91
2023-06-07T14:29:58.283Z,100410.00
2023-06-07T14:33:00.548Z,100406.03
2023-06-07T14:36:03.598Z,100408.31
2023-06-07T14:39:05.777Z,100413.25
2023-06-07T14:42:08.280Z,100401.09
2023-06-07T14:45:11.039Z,100404.16
2023-06-07T14:48:13.513Z,100406.50
2023-06-07T14:51:16.596Z,100406.31
2023-06-07T14:54:19.025Z,100400.50
2023-06-07T14:57:21.431Z,100407.34
2023-06-07T15:00:23.924Z,100407.78
2023-06-07T15:03:26.181Z,100407.28
2023-06-07T15:06:28.713Z,100396.94
2023-06-07T15:09:33.978Z,100393.31
2023-06-07T15:12:37.780Z,100385.50
2023-06-07T15:15:39.990Z,100379.50
2023-06-07T15:18:42.556Z,100379.66
2023-06-07T15:21:44.800Z,100379.16
2023-06-07T15:24:47.231Z,100379.25
2023-06-07T15:27:49.367Z,100378.09
2023-06-07T15:30:51.779Z,100387.50
2023-06-07T15:33:55.804Z,100384.91
2023-06-07T15:36:58.489Z,100386.88
2023-06-07T15:40:00.739Z,100384.59
2023-06-07T15:43:03.193Z,100390.03
2023-06-07T15:46:05.804Z,100390.91
2023-06-07T15:49:08.215Z,100410.78
2023-06-07T15:52:10.588Z,100402.59
2023-06-07T15:55:13.116Z,100405.47
2023-06-07T15:58:18.557Z,100408.91
2023-06-07T16:01:20.998Z,100412.41
2023-06-07T16:04:23.510Z,100405.47
2023-06-07T16:07:26.685Z,100407.75
2023-06-07T16:10:29.133Z,100406.69
2023-06-07T16:13:31.253Z,100397.34
2023-06-07T16:16:34.689Z,100398.91
2023-06-07T16:19:37.934Z,100396.09
2023-06-07T16:22:40.377Z,100395.03
2023-06-07T16:25:42.572Z,100385.25
